createdAt,value
2022-12-31T00:02:11.391Z,1.28
2022-12-31T00:04:41.932Z,1.28
2022-12-31T00:07:11.889Z,1.24
2022-12-31T00:09:41.761Z,1.21
2022-12-31T00:12:10.453Z,1.18
2022-12-31T00:14:40.271Z,1.14
2022-12-31T00:17:10.758Z,1.08
2022-12-31T00:19:41.186Z,1.04
2022-12-31T00:22:11.430Z,1.01
2022-12-31T00:24:41.432Z,1.00
2022-12-31T00:27:11.210Z,0.96
2022-12-31T00:29:41.182Z,0.89
2022-12-31T00:32:11.699Z,0.84
2022-12-31T00:34:42.398Z,0.81
2022-12-31T00:37:12.573Z,0.79
2022-12-31T00:39:42.339Z,0.76
2022-12-31T00:42:11.994Z,0.73
2022-12-31T00:44:42.110Z,0.70
2022-12-31T00:47:12.744Z,0.70
2022-12-31T00:49:42.909Z,0.68
2022-12-31T00:52:14.273Z,0.64
2022-12-31T00:54:44.876Z,0.60
2022-12-31T00:57:15.489Z,0.56
2022-12-31T00:59:45.853Z,0.53
2022-12-31T01:02:16.748Z,0.48
2022-12-31T01:04:47.786Z,0.47
2022-12-31T01:07:18.079Z,0.46
2022-12-31T01:09:48.409Z,0.44
2022-12-31T01:12:19.034Z,0.41
2022-12-31T01:14:48.895Z,0.35
2022-12-31T01:17:19.461Z,0.33
2022-12-31T01:19:49.259Z,0.28
2022-12-31T01:22:19.657Z,0.24
2022-12-31T01:24:48.213Z,0.22
2022-12-31T01:27:19.083Z,0.18
2022-12-31T01:29:49.051Z,0.16
2022-12-31T01:32:18.378Z,0.13
2022-12-31T01:34:48.552Z,0.10
2022-12-31T01:37:18.186Z,0.08
2022-12-31T01:39:48.271Z,0.06
2022-12-31T01:42:16.972Z,0.02
2022-12-31T01:44:51.065Z,-0.03
2022-12-31T01:47:35.074Z,-0.07
2022-12-31T01:50:16.616Z,-0.12
2022-12-31T01:52:54.948Z,-0.15
2022-12-31T01:55:30.277Z,-0.17
2022-12-31T01:58:13.272Z,-0.20
2022-12-31T02:00:44.606Z,-0.24
2022-12-31T02:03:14.070Z,-0.27
2022-12-31T02:05:57.676Z,-0.29
2022-12-31T02:08:27.463Z,-0.31
2022-12-31T02:10:57.395Z,-0.32
2022-12-31T02:13:27.367Z,-0.31
2022-12-31T02:16:37.154Z,-0.31
2022-12-31T02:19:38.793Z,-0.32
2022-12-31T02:22:30.002Z,-0.37
2022-12-31T02:25:20.854Z,-0.39
2022-12-31T02:28:00.347Z,-0.43
2022-12-31T02:30:33.155Z,-0.44
2022-12-31T02:33:24.820Z,-0.45
2022-12-31T02:36:03.617Z,-0.43
2022-12-31T02:38:41.048Z,-0.40
2022-12-31T02:41:39.056Z,-0.35
2022-12-31T02:44:22.165Z,-0.30
2022-12-31T02:47:02.869Z,-0.28
2022-12-31T02:49:52.993Z,-0.21
2022-12-31T02:52:42.866Z,-0.16
2022-12-31T02:55:27.799Z,-0.12
2022-12-31T02:58:08.544Z,-0.12
2022-12-31T03:01:10.320Z,-0.11
2022-12-31T03:03:40.068Z,-0.08
2022-12-31T03:06:13.936Z,-0.04
2022-12-31T03:09:03.461Z,0.01
2022-12-31T03:11:53.121Z,0.05
2022-12-31T03:14:21.761Z,0.09
2022-12-31T03:16:52.144Z,0.11
2022-12-31T03:19:44.381Z,0.11
2022-12-31T03:22:29.484Z,0.09
2022-12-31T03:25:25.306Z,0.10
2022-12-31T03:27:57.039Z,0.13
2022-12-31T03:30:28.113Z,0.15
2022-12-31T03:32:59.280Z,0.18
2022-12-31T03:35:31.962Z,0.21
2022-12-31T03:38:03.303Z,0.23
2022-12-31T03:40:37.332Z,0.27
2022-12-31T03:43:08.611Z,0.31
2022-12-31T03:45:38.780Z,0.36
2022-12-31T03:48:10.313Z,0.40
2022-12-31T03:50:40.116Z,0.44
2022-12-31T03:53:10.138Z,0.48
2022-12-31T03:55:40.186Z,0.53
2022-12-31T03:58:10.160Z,0.58
2022-12-31T04:00:40.208Z,0.63
2022-12-31T04:03:10.820Z,0.67
2022-12-31T04:05:41.726Z,0.69
2022-12-31T04:08:10.689Z,0.70
2022-12-31T04:10:41.254Z,0.71
2022-12-31T04:13:11.097Z,0.72
2022-12-31T04:15:41.202Z,0.73
2022-12-31T04:18:11.239Z,0.74
2022-12-31T04:20:41.209Z,0.75
2022-12-31T04:23:11.550Z,0.77
2022-12-31T04:25:40.921Z,0.78
2022-12-31T04:28:12.732Z,0.81
2022-12-31T04:30:44.348Z,0.86
2022-12-31T04:33:14.338Z,0.91
2022-12-31T04:35:45.614Z,0.93
2022-12-31T04:38:15.594Z,0.97
2022-12-31T04:41:06.001Z,1.00
2022-12-31T04:43:35.776Z,1.05
2022-12-31T04:46:05.864Z,1.09
2022-12-31T04:48:35.912Z,1.11
2022-12-31T04:51:06.329Z,1.15
2022-12-31T04:53:36.162Z,1.18
2022-12-31T04:56:07.150Z,1.18
2022-12-31T04:58:37.331Z,1.20
2022-12-31T05:01:08.540Z,1.19
2022-12-31T05:03:38.883Z,1.21
2022-12-31T05:06:12.593Z,1.23
2022-12-31T05:08:41.346Z,1.26
2022-12-31T05:11:12.638Z,1.29
2022-12-31T05:13:42.686Z,1.30
2022-12-31T05:16:13.044Z,1.31
2022-12-31T05:18:42.151Z,1.34
2022-12-31T05:21:20.585Z,1.36
2022-12-31T05:23:50.713Z,1.39
2022-12-31T05:26:21.090Z,1.42
2022-12-31T05:28:49.578Z,1.45
2022-12-31T05:31:19.421Z,1.48
2022-12-31T05:33:50.887Z,1.48
2022-12-31T05:36:20.724Z,1.49
2022-12-31T05:38:49.357Z,1.51
2022-12-31T05:41:19.446Z,1.53
2022-12-31T05:43:50.681Z,1.52
2022-12-31T05:46:20.478Z,1.53
2022-12-31T05:48:50.266Z,1.53
2022-12-31T05:51:20.457Z,1.53
2022-12-31T05:53:50.405Z,1.54
2022-12-31T05:56:20.992Z,1.54
2022-12-31T05:58:50.751Z,1.54
2022-12-31T06:01:20.599Z,1.55
2022-12-31T06:03:50.095Z,1.55
2022-12-31T06:06:20.183Z,1.57
2022-12-31T06:08:53.303Z,1.60
2022-12-31T06:11:23.297Z,1.61
2022-12-31T06:13:53.149Z,1.64
2022-12-31T06:16:22.974Z,1.62
2022-12-31T06:18:53.120Z,1.63
2022-12-31T06:21:23.495Z,1.65
2022-12-31T06:23:53.298Z,1.67
2022-12-31T06:26:22.752Z,1.67
2022-12-31T06:28:52.575Z,1.67
2022-12-31T06:31:21.149Z,1.67
2022-12-31T06:33:50.824Z,1.70
2022-12-31T06:36:22.332Z,1.74
2022-12-31T06:38:52.238Z,1.75
2022-12-31T06:41:22.947Z,1.75
2022-12-31T06:43:52.866Z,1.78
2022-12-31T06:46:22.678Z,1.80
2022-12-31T06:48:52.978Z,1.82
2022-12-31T06:51:23.377Z,1.84
2022-12-31T06:53:53.366Z,1.87
2022-12-31T06:56:33.867Z,1.90
2022-12-31T06:59:05.532Z,1.91
2022-12-31T07:01:50.916Z,1.88
2022-12-31T07:04:54.615Z,1.91
2022-12-31T07:07:46.849Z,1.93
2022-12-31T07:10:33.244Z,1.94
2022-12-31T07:13:34.198Z,1.99
2022-12-31T07:16:09.342Z,2.01
2022-12-31T07:19:13.838Z,2.03
2022-12-31T07:21:44.049Z,2.08
2022-12-31T07:24:14.570Z,2.10
2022-12-31T07:27:02.342Z,2.15
2022-12-31T07:30:05.367Z,2.17
2022-12-31T07:32:55.724Z,2.17
2022-12-31T07:35:57.721Z,2.18
2022-12-31T07:38:53.699Z,2.23
2022-12-31T07:41:35.397Z,2.42
2022-12-31T07:44:32.341Z,2.55
2022-12-31T07:47:05.421Z,2.67
2022-12-31T07:49:35.395Z,2.74
2022-12-31T07:52:05.535Z,2.84
2022-12-31T07:54:35.748Z,2.95
2022-12-31T07:57:05.726Z,3.17
2022-12-31T07:59:54.095Z,3.36
2022-12-31T08:03:00.702Z,3.57
2022-12-31T08:06:11.797Z,3.87
2022-12-31T08:09:13.947Z,4.17
2022-12-31T08:11:55.658Z,4.41
2022-12-31T08:14:26.525Z,4.61
2022-12-31T08:16:56.998Z,4.82
2022-12-31T08:19:31.945Z,5.07
2022-12-31T08:22:28.827Z,5.35
2022-12-31T08:25:23.562Z,5.68
2022-12-31T08:28:13.851Z,5.91
2022-12-31T08:30:53.092Z,6.08
2022-12-31T08:33:44.311Z,6.29
2022-12-31T08:36:44.791Z,6.47
2022-12-31T08:39:46.013Z,6.66
2022-12-31T08:42:37.857Z,6.68
2022-12-31T08:45:20.339Z,6.72
2022-12-31T08:48:02.871Z,6.73
2022-12-31T08:50:34.736Z,6.76
2022-12-31T08:53:05.173Z,6.81
2022-12-31T08:55:35.682Z,6.89
2022-12-31T08:58:16.220Z,7.03
2022-12-31T09:00:50.573Z,7.15
2022-12-31T09:03:36.789Z,7.32
2022-12-31T09:06:22.806Z,7.48
2022-12-31T09:09:16.506Z,7.55
2022-12-31T09:12:07.189Z,7.57
2022-12-31T09:14:56.347Z,7.57
2022-12-31T09:17:44.195Z,7.59
2022-12-31T09:20:42.262Z,7.64
2022-12-31T09:23:14.550Z,7.66
2022-12-31T09:26:01.668Z,7.83
2022-12-31T09:29:16.242Z,8.12
2022-12-31T09:32:09.271Z,8.47
2022-12-31T09:34:45.726Z,8.76
2022-12-31T09:37:30.205Z,9.00
2022-12-31T09:40:24.043Z,9.27
2022-12-31T09:43:18.853Z,9.43
2022-12-31T09:46:22.860Z,9.54
2022-12-31T09:49:39.484Z,9.43
2022-12-31T09:52:24.636Z,9.23
2022-12-31T09:55:13.561Z,9.09
2022-12-31T09:58:13.641Z,9.12
2022-12-31T10:00:58.543Z,9.10
2022-12-31T10:03:32.566Z,8.99
2022-12-31T10:06:17.624Z,8.93
2022-12-31T10:09:28.108Z,8.88
2022-12-31T10:12:28.196Z,8.78
2022-12-31T10:15:34.952Z,8.71
2022-12-31T10:18:38.511Z,8.57
2022-12-31T10:21:32.313Z,8.57
2022-12-31T10:24:24.071Z,8.54
2022-12-31T10:27:19.100Z,8.52
2022-12-31T10:30:23.846Z,8.63
2022-12-31T10:33:21.269Z,8.59
2022-12-31T10:36:16.872Z,8.58
2022-12-31T10:39:16.406Z,8.62
2022-12-31T10:42:17.151Z,8.71
2022-12-31T10:45:17.151Z,8.74
2022-12-31T10:47:50.350Z,8.68
2022-12-31T10:50:34.721Z,8.77
2022-12-31T10:53:48.093Z,8.90
2022-12-31T10:56:44.471Z,9.21
2022-12-31T10:59:36.596Z,9.49
2022-12-31T11:02:39.573Z,9.83
2022-12-31T11:05:46.673Z,10.19
2022-12-31T11:08:52.931Z,10.54
2022-12-31T11:11:43.881Z,10.82
2022-12-31T11:14:45.422Z,11.06
2022-12-31T11:17:20.431Z,11.23
2022-12-31T11:19:58.036Z,11.41
2022-12-31T11:22:51.673Z,11.60
2022-12-31T11:25:52.220Z,11.66
2022-12-31T11:28:29.873Z,11.77
2022-12-31T11:31:13.370Z,11.68
2022-12-31T11:34:04.996Z,11.59
2022-12-31T11:36:52.841Z,11.46
2022-12-31T11:39:31.645Z,11.29
2022-12-31T11:42:30.536Z,11.27
2022-12-31T11:45:50.529Z,11.33
2022-12-31T11:48:31.009Z,11.49
2022-12-31T11:51:26.394Z,11.56
2022-12-31T11:54:17.980Z,11.55
2022-12-31T11:57:02.752Z,11.67
2022-12-31T11:59:32.622Z,11.68
2022-12-31T12:02:24.939Z,11.63
2022-12-31T12:04:58.699Z,11.42
2022-12-31T12:07:30.421Z,11.31
2022-12-31T12:10:12.552Z,11.21
2022-12-31T12:12:43.701Z,11.18
2022-12-31T12:15:33.238Z,11.26
2022-12-31T12:18:36.568Z,11.52
2022-12-31T12:21:17.077Z,11.94
2022-12-31T12:24:01.278Z,12.27
2022-12-31T12:26:43.558Z,12.63
2022-12-31T12:29:21.328Z,12.89
2022-12-31T12:32:17.992Z,13.16
2022-12-31T12:34:50.096Z,13.36
2022-12-31T12:37:26.202Z,13.40
2022-12-31T12:40:01.370Z,13.53
2022-12-31T12:42:32.098Z,13.73
2022-12-31T12:45:19.219Z,14.00
2022-12-31T12:47:55.380Z,14.14
2022-12-31T12:50:37.366Z,14.13
2022-12-31T12:53:33.279Z,14.08
2022-12-31T12:56:12.795Z,13.98
2022-12-31T12:58:59.856Z,13.89
2022-12-31T13:02:15.249Z,13.80
2022-12-31T13:05:03.198Z,13.74
2022-12-31T13:07:58.701Z,13.67
2022-12-31T13:10:56.722Z,13.59
2022-12-31T13:13:39.318Z,13.54
2022-12-31T13:16:23.201Z,13.50
2022-12-31T13:19:12.511Z,13.47
2022-12-31T13:22:02.303Z,13.41
2022-12-31T13:24:50.479Z,13.32
2022-12-31T13:27:46.349Z,13.26
2022-12-31T13:30:44.812Z,13.17
2022-12-31T13:33:20.096Z,13.11
2022-12-31T13:35:59.401Z,13.07
2022-12-31T13:38:50.637Z,13.03
2022-12-31T13:41:42.837Z,12.97
2022-12-31T13:44:48.651Z,12.94
2022-12-31T13:47:31.054Z,12.89
2022-12-31T13:50:20.258Z,12.83
2022-12-31T13:53:07.958Z,12.78
2022-12-31T13:56:02.412Z,12.74
2022-12-31T13:58:58.034Z,12.69
2022-12-31T14:01:40.695Z,12.63
2022-12-31T14:04:14.056Z,12.60
2022-12-31T14:07:03.731Z,12.58
2022-12-31T14:09:35.650Z,12.52
2022-12-31T14:12:46.561Z,12.49
2022-12-31T14:15:32.572Z,12.35
2022-12-31T14:18:34.013Z,12.00
2022-12-31T14:21:27.465Z,11.40
2022-12-31T14:24:23.342Z,10.83
2022-12-31T14:26:59.932Z,10.31
2022-12-31T14:29:45.319Z,9.97
2022-12-31T14:33:02.967Z,9.68
2022-12-31T14:35:51.575Z,9.40
2022-12-31T14:38:29.692Z,9.15
2022-12-31T14:41:43.418Z,8.96
2022-12-31T14:44:41.503Z,8.77
2022-12-31T14:47:34.177Z,8.55
2022-12-31T14:50:11.325Z,8.38
2022-12-31T14:52:51.357Z,8.29
2022-12-31T14:55:24.581Z,8.24
2022-12-31T14:58:26.511Z,8.21
2022-12-31T15:01:03.733Z,8.17
2022-12-31T15:03:32.385Z,8.18
2022-12-31T15:06:24.794Z,8.08
2022-12-31T15:09:11.917Z,8.05
2022-12-31T15:12:22.940Z,7.88
2022-12-31T15:15:01.703Z,7.79
2022-12-31T15:17:37.185Z,7.74
2022-12-31T15:20:37.510Z,7.68
2022-12-31T15:23:22.582Z,7.64
2022-12-31T15:26:00.593Z,7.64
2022-12-31T15:28:34.897Z,7.62
2022-12-31T15:31:20.639Z,7.56
2022-12-31T15:34:02.865Z,7.51
2022-12-31T15:36:36.038Z,7.41
2022-12-31T15:39:12.100Z,7.35
2022-12-31T15:42:18.855Z,7.30
2022-12-31T15:44:44.325Z,7.21
2022-12-31T15:47:40.879Z,7.15
2022-12-31T15:50:20.914Z,7.14
2022-12-31T15:52:56.950Z,7.12
2022-12-31T15:55:50.556Z,7.10
2022-12-31T15:58:23.482Z,7.09
2022-12-31T16:01:01.927Z,7.06
2022-12-31T16:03:32.551Z,7.02
2022-12-31T16:06:05.086Z,6.96
2022-12-31T16:08:36.521Z,6.94
2022-12-31T16:11:09.167Z,6.94
2022-12-31T16:13:47.762Z,6.94
2022-12-31T16:16:29.372Z,6.95
2022-12-31T16:19:01.979Z,6.94
2022-12-31T16:21:38.995Z,6.97
2022-12-31T16:24:32.436Z,6.99
2022-12-31T16:27:07.176Z,7.05
2022-12-31T16:29:42.149Z,7.12
2022-12-31T16:32:16.347Z,7.20
2022-12-31T16:34:47.428Z,7.27
2022-12-31T16:37:21.141Z,7.35
2022-12-31T16:40:01.418Z,7.40
2022-12-31T16:42:31.639Z,7.45
2022-12-31T16:45:24.920Z,7.48
2022-12-31T16:47:55.132Z,7.51
2022-12-31T16:50:25.580Z,7.56
2022-12-31T16:53:08.027Z,7.59
2022-12-31T16:55:41.697Z,7.62
2022-12-31T16:58:23.158Z,7.66
2022-12-31T17:00:53.810Z,7.66
2022-12-31T17:03:25.954Z,7.69
2022-12-31T17:06:17.463Z,7.72
2022-12-31T17:08:57.269Z,7.70
2022-12-31T17:11:35.492Z,7.65
2022-12-31T17:14:14.867Z,7.65
2022-12-31T17:17:07.225Z,7.66
2022-12-31T17:19:40.356Z,7.69
2022-12-31T17:22:17.459Z,7.70
2022-12-31T17:24:49.271Z,7.68
2022-12-31T17:27:20.171Z,7.59
2022-12-31T17:29:50.415Z,7.47
2022-12-31T17:32:37.601Z,7.41
2022-12-31T17:35:35.464Z,7.40
2022-12-31T17:38:23.518Z,7.40
2022-12-31T17:41:05.863Z,7.36
2022-12-31T17:43:39.192Z,7.40
2022-12-31T17:46:17.013Z,7.44
2022-12-31T17:48:53.649Z,7.49
2022-12-31T17:51:24.385Z,7.54
2022-12-31T17:53:54.918Z,7.59
2022-12-31T17:56:24.984Z,7.63
2022-12-31T17:58:57.227Z,7.63
2022-12-31T18:01:27.509Z,7.63
2022-12-31T18:03:57.779Z,7.59
2022-12-31T18:06:27.902Z,7.54
2022-12-31T18:08:57.744Z,7.55
2022-12-31T18:11:28.050Z,7.56
2022-12-31T18:13:58.069Z,7.60
2022-12-31T18:16:28.229Z,7.61
2022-12-31T18:19:00.636Z,7.59
2022-12-31T18:21:33.428Z,7.53
2022-12-31T18:26:35.026Z,7.53
2022-12-31T18:29:18.286Z,7.53
2022-12-31T18:31:49.363Z,7.56
2022-12-31T18:34:19.645Z,7.58
2022-12-31T18:36:49.435Z,7.61
2022-12-31T18:39:18.039Z,7.53
2022-12-31T18:41:52.471Z,7.37
2022-12-31T18:44:23.427Z,7.28
2022-12-31T18:46:53.847Z,7.29
2022-12-31T18:49:23.539Z,7.31
2022-12-31T18:51:54.531Z,7.32
2022-12-31T18:54:24.878Z,7.32
2022-12-31T18:56:57.189Z,7.34
2022-12-31T18:59:26.740Z,7.36
2022-12-31T19:01:57.075Z,7.36
2022-12-31T19:04:28.429Z,7.35
2022-12-31T19:06:59.029Z,7.35
2022-12-31T19:09:45.251Z,7.35
2022-12-31T19:12:17.296Z,7.36
2022-12-31T19:14:47.153Z,7.33
2022-12-31T19:17:15.802Z,7.32
2022-12-31T19:19:45.690Z,7.31
2022-12-31T19:22:18.334Z,7.30
2022-12-31T19:24:48.187Z,7.29
2022-12-31T19:27:17.849Z,7.27
2022-12-31T19:29:46.874Z,7.27
2022-12-31T19:32:16.686Z,7.27
2022-12-31T19:34:46.519Z,7.29
2022-12-31T19:37:16.543Z,7.30
2022-12-31T19:39:45.922Z,7.28
2022-12-31T19:42:16.512Z,7.27
2022-12-31T19:44:46.336Z,7.26
2022-12-31T19:47:16.114Z,7.24
2022-12-31T19:49:45.919Z,7.24
2022-12-31T19:52:15.532Z,7.25
2022-12-31T19:54:45.330Z,7.28
2022-12-31T19:57:15.424Z,7.31
2022-12-31T19:59:44.651Z,7.34
2022-12-31T20:02:14.539Z,7.37
2022-12-31T20:04:44.628Z,7.39
2022-12-31T20:07:14.416Z,7.36
2022-12-31T20:09:44.159Z,7.36
2022-12-31T20:12:13.949Z,7.34
2022-12-31T20:14:42.633Z,7.35
2022-12-31T20:17:12.210Z,7.34
2022-12-31T20:19:42.125Z,7.32
2022-12-31T20:22:10.824Z,7.27
2022-12-31T20:24:40.828Z,7.26
2022-12-31T20:27:16.533Z,7.24
2022-12-31T20:29:47.396Z,7.22
2022-12-31T20:32:16.145Z,7.22
2022-12-31T20:34:45.878Z,7.23
2022-12-31T20:37:15.095Z,7.26
2022-12-31T20:39:44.681Z,7.27
2022-12-31T20:42:14.466Z,7.28
2022-12-31T20:44:44.267Z,7.28
2022-12-31T20:47:14.227Z,7.31
2022-12-31T20:50:10.373Z,7.33
2022-12-31T20:52:34.390Z,7.34
2022-12-31T20:55:04.677Z,7.30
2022-12-31T20:57:34.723Z,7.25
2022-12-31T21:00:05.314Z,7.20
2022-12-31T21:02:42.257Z,7.19
2022-12-31T21:05:13.761Z,7.18
2022-12-31T21:07:43.395Z,7.20
2022-12-31T21:10:13.272Z,7.20
2022-12-31T21:12:50.022Z,7.19
2022-12-31T21:15:21.887Z,7.18
2022-12-31T21:17:52.131Z,7.12
2022-12-31T21:20:21.971Z,7.12
2022-12-31T21:22:51.930Z,7.12
2022-12-31T21:25:21.759Z,7.10
2022-12-31T21:27:51.845Z,7.09
2022-12-31T21:30:20.704Z,7.09
2022-12-31T21:32:51.530Z,7.08
2022-12-31T21:38:13.735Z,7.06
2022-12-31T21:40:45.474Z,7.06
2022-12-31T21:43:16.309Z,7.06
2022-12-31T21:45:48.502Z,7.07
2022-12-31T21:48:21.756Z,7.08
2022-12-31T21:50:59.390Z,7.08
2022-12-31T21:53:36.199Z,7.11
2022-12-31T21:56:11.917Z,7.10
2022-12-31T21:58:45.565Z,7.07
2022-12-31T22:01:41.193Z,7.08
2022-12-31T22:04:35.186Z,7.06
2022-12-31T22:07:01.152Z,7.03
2022-12-31T22:09:31.617Z,6.99
2022-12-31T22:12:01.821Z,6.97
2022-12-31T22:14:31.517Z,6.94
2022-12-31T22:17:01.568Z,6.91
2022-12-31T22:19:33.711Z,6.88
2022-12-31T22:22:13.890Z,6.85
2022-12-31T22:24:42.608Z,6.84
2022-12-31T22:27:29.217Z,6.80
2022-12-31T22:30:01.507Z,6.79
2022-12-31T22:32:31.655Z,6.80
2022-12-31T22:35:01.846Z,6.80
2022-12-31T22:37:56.850Z,6.80
2022-12-31T22:40:22.913Z,6.81
2022-12-31T22:42:51.511Z,6.82
2022-12-31T22:45:23.019Z,6.84
2022-12-31T22:47:53.555Z,6.83
2022-12-31T22:50:23.580Z,6.83
2022-12-31T22:52:53.754Z,6.73
2022-12-31T22:55:22.387Z,6.61
2022-12-31T22:57:54.216Z,6.58
2022-12-31T23:00:40.329Z,6.55
2022-12-31T23:03:10.302Z,6.53
2022-12-31T23:05:40.136Z,6.51
2022-12-31T23:08:20.676Z,6.52
2022-12-31T23:11:00.864Z,6.45
2022-12-31T23:13:52.458Z,6.40
2022-12-31T23:16:43.206Z,6.33
2022-12-31T23:19:32.664Z,6.31
2022-12-31T23:22:22.285Z,6.32
2022-12-31T23:24:52.525Z,6.33
2022-12-31T23:27:22.584Z,6.33
2022-12-31T23:29:52.364Z,6.31
2022-12-31T23:32:22.264Z,6.32
2022-12-31T23:34:53.839Z,6.33
2022-12-31T23:37:23.818Z,6.33
2022-12-31T23:39:53.608Z,6.34
2022-12-31T23:42:22.886Z,6.36
2022-12-31T23:44:53.997Z,6.36
2022-12-31T23:47:23.852Z,6.32
2022-12-31T23:49:52.740Z,6.32
2022-12-31T23:52:21.422Z,6.31
2022-12-31T23:54:51.342Z,6.31
2022-12-31T23:57:22.764Z,6.33
2022-12-31T23:59:51.777Z,6.37
